createdAt,value
2023-04-12T00:01:30.207Z,6.95
2023-04-12T00:03:58.436Z,6.90
2023-04-12T00:06:32.082Z,6.87
2023-04-12T00:09:00.404Z,6.89
2023-04-12T00:11:28.417Z,6.83
2023-04-12T00:13:56.801Z,6.84
2023-04-12T00:16:24.738Z,6.87
2023-04-12T00:18:52.494Z,6.93
2023-04-12T00:21:20.461Z,6.96
2023-04-12T00:23:49.456Z,6.92
2023-04-12T00:26:17.464Z,6.89
2023-04-12T00:28:46.057Z,6.92
2023-04-12T00:31:13.773Z,6.96
2023-04-12T00:33:41.551Z,6.98
2023-04-12T00:36:10.255Z,6.90
2023-04-12T00:38:37.960Z,6.91
2023-04-12T00:41:07.963Z,7.02
2023-04-12T00:43:35.662Z,7.03
2023-04-12T00:46:04.033Z,7.02
2023-04-12T00:48:32.299Z,6.94
2023-04-12T00:51:01.568Z,6.94
2023-04-12T00:53:29.572Z,6.91
2023-04-12T00:55:57.857Z,6.91
2023-04-12T00:58:26.885Z,6.94
2023-04-12T01:00:54.810Z,6.99
2023-04-12T01:03:24.741Z,6.98
2023-04-12T01:06:04.343Z,7.12
2023-04-12T01:08:41.837Z,7.22
2023-04-12T01:11:19.442Z,7.24
2023-04-12T01:13:54.542Z,7.26
2023-04-12T01:16:32.869Z,7.23
2023-04-12T01:19:05.768Z,7.07
2023-04-12T01:21:46.156Z,6.92
2023-04-12T01:24:28.917Z,6.83
2023-04-12T01:27:00.827Z,6.84
2023-04-12T01:29:31.086Z,7.06
2023-04-12T01:32:01.476Z,7.12
2023-04-12T01:34:32.228Z,7.21
2023-04-12T01:37:03.533Z,7.21
2023-04-12T01:39:32.397Z,7.23
2023-04-12T01:42:00.970Z,7.27
2023-04-12T01:44:30.852Z,7.31
2023-04-12T01:46:58.895Z,7.32
2023-04-12T01:49:31.430Z,7.36
2023-04-12T01:52:03.912Z,7.41
2023-04-12T01:54:37.816Z,7.41
2023-04-12T01:57:08.457Z,7.53
2023-04-12T01:59:40.702Z,7.54
2023-04-12T02:02:11.475Z,7.54
2023-04-12T02:04:39.823Z,7.61
2023-04-12T02:07:07.584Z,7.57
2023-04-12T02:09:38.113Z,7.64
2023-04-12T02:12:06.783Z,7.67
2023-04-12T02:14:34.435Z,7.46
2023-04-12T02:17:05.717Z,7.42
2023-04-12T02:19:33.876Z,7.55
2023-04-12T02:22:04.601Z,7.51
2023-04-12T02:24:32.498Z,7.62
2023-04-12T02:27:01.480Z,7.46
2023-04-12T02:29:29.682Z,7.42
2023-04-12T02:31:57.827Z,7.44
2023-04-12T02:34:31.255Z,7.52
2023-04-12T02:37:07.905Z,7.47
2023-04-12T02:39:35.833Z,7.57
2023-04-12T02:42:03.740Z,7.48
2023-04-12T02:44:31.483Z,7.50
2023-04-12T02:47:11.239Z,7.48
2023-04-12T02:49:41.767Z,7.39
2023-04-12T02:52:11.394Z,7.46
2023-04-12T02:54:47.499Z,7.45
2023-04-12T02:57:17.597Z,7.50
2023-04-12T02:59:47.637Z,7.50
2023-04-12T03:02:38.448Z,7.34
2023-04-12T03:05:12.327Z,7.21
2023-04-12T03:07:43.432Z,7.15
2023-04-12T03:10:13.210Z,7.12
2023-04-12T03:12:46.229Z,7.16
2023-04-12T03:15:22.005Z,7.17
2023-04-12T03:17:49.864Z,7.19
2023-04-12T03:20:24.314Z,7.13
2023-04-12T03:23:12.177Z,7.18
2023-04-12T03:25:44.786Z,7.11
2023-04-12T03:28:33.604Z,7.24
2023-04-12T03:31:03.346Z,7.09
2023-04-12T03:33:42.927Z,7.03
2023-04-12T03:36:22.305Z,7.01
2023-04-12T03:38:55.764Z,6.84
2023-04-12T03:41:24.350Z,6.82
2023-04-12T03:43:51.985Z,6.86
2023-04-12T03:46:20.111Z,6.92
2023-04-12T03:48:55.702Z,6.94
2023-04-12T03:51:27.025Z,7.07
2023-04-12T03:54:02.675Z,7.06
2023-04-12T03:56:34.612Z,7.09
2023-04-12T03:59:07.566Z,7.18
2023-04-12T04:01:35.544Z,7.20
2023-04-12T04:04:04.029Z,7.12
2023-04-12T04:06:34.219Z,7.26
2023-04-12T04:09:02.134Z,7.27
2023-04-12T04:11:32.793Z,7.12
2023-04-12T04:14:07.402Z,7.20
2023-04-12T04:16:36.402Z,7.20
2023-04-12T04:19:06.594Z,7.20
2023-04-12T04:21:35.862Z,7.03
2023-04-12T04:24:04.249Z,7.18
2023-04-12T04:26:38.349Z,7.36
2023-04-12T04:29:12.345Z,7.25
2023-04-12T04:31:40.818Z,7.35
2023-04-12T04:34:12.263Z,7.29
2023-04-12T04:36:45.587Z,7.22
2023-04-12T04:39:18.117Z,7.18
2023-04-12T04:41:46.637Z,7.04
2023-04-12T04:44:25.751Z,7.21
2023-04-12T04:46:56.602Z,7.08
2023-04-12T04:49:24.425Z,6.98
2023-04-12T04:51:53.430Z,6.92
2023-04-12T04:54:23.198Z,6.89
2023-04-12T04:56:51.057Z,6.69
2023-04-12T04:59:20.809Z,6.89
2023-04-12T05:01:48.624Z,6.85
2023-04-12T05:04:18.162Z,6.89
2023-04-12T05:06:47.089Z,6.89
2023-04-12T05:09:19.554Z,6.97
2023-04-12T05:11:55.298Z,6.77
2023-04-12T05:14:23.407Z,6.96
2023-04-12T05:16:51.554Z,6.75
2023-04-12T05:19:19.227Z,6.79
2023-04-12T05:21:47.394Z,6.85
2023-04-12T05:24:15.223Z,6.89
2023-04-12T05:26:47.198Z,6.96
2023-04-12T05:29:15.505Z,6.94
2023-04-12T05:31:43.952Z,7.00
2023-04-12T05:34:18.924Z,6.88
2023-04-12T05:36:54.705Z,6.89
2023-04-12T05:39:40.251Z,6.86
2023-04-12T05:42:11.947Z,7.08
2023-04-12T05:44:40.614Z,7.04
2023-04-12T05:47:12.914Z,7.09
2023-04-12T05:49:40.971Z,7.11
2023-04-12T05:52:10.970Z,6.89
2023-04-12T05:54:39.487Z,6.69
2023-04-12T05:57:13.867Z,6.88
2023-04-12T05:59:42.004Z,6.95
2023-04-12T06:02:10.678Z,7.00
2023-04-12T06:04:50.070Z,6.99
2023-04-12T06:07:19.371Z,7.07
2023-04-12T06:09:47.261Z,7.08
2023-04-12T06:12:16.392Z,7.03
2023-04-12T06:14:44.148Z,7.07
2023-04-12T06:17:11.903Z,7.03
2023-04-12T06:19:41.047Z,7.07
2023-04-12T06:22:08.638Z,7.18
2023-04-12T06:24:37.494Z,7.25
2023-04-12T06:27:05.417Z,7.39
2023-04-12T06:29:34.717Z,7.28
2023-04-12T06:32:02.361Z,7.26
2023-04-12T06:34:31.610Z,7.40
2023-04-12T06:37:03.634Z,7.27
2023-04-12T06:39:31.335Z,7.48
2023-04-12T06:41:59.508Z,7.54
2023-04-12T06:44:27.896Z,7.63
2023-04-12T06:46:56.855Z,7.61
2023-04-12T06:49:24.452Z,7.57
2023-04-12T06:51:52.236Z,7.72
2023-04-12T06:54:19.929Z,7.45
2023-04-12T06:56:47.530Z,7.72
2023-04-12T06:59:15.374Z,7.80
2023-04-12T07:01:43.506Z,7.86
2023-04-12T07:04:13.717Z,7.68
2023-04-12T07:06:42.540Z,7.75
2023-04-12T07:09:10.391Z,7.74
2023-04-12T07:11:37.996Z,7.79
2023-04-12T07:14:06.216Z,7.65
2023-04-12T07:16:34.037Z,7.75
2023-04-12T07:19:01.821Z,7.98
2023-04-12T07:21:30.761Z,8.14
2023-04-12T07:23:58.399Z,8.26
2023-04-12T07:26:26.060Z,8.35
2023-04-12T07:28:54.673Z,8.21
2023-04-12T07:31:23.572Z,8.30
2023-04-12T07:33:51.269Z,8.37
2023-04-12T07:36:21.140Z,8.33
2023-04-12T07:38:55.164Z,8.38
2023-04-12T07:41:23.313Z,8.38
2023-04-12T07:43:51.446Z,8.48
2023-04-12T07:46:19.059Z,8.39
2023-04-12T07:48:46.940Z,8.48
2023-04-12T07:51:14.739Z,8.50
2023-04-12T07:53:42.489Z,8.63
2023-04-12T07:56:11.514Z,8.75
2023-04-12T07:58:39.122Z,8.71
2023-04-12T08:01:08.453Z,8.81
2023-04-12T08:03:36.167Z,8.79
2023-04-12T08:06:04.307Z,8.60
2023-04-12T08:08:31.951Z,8.72
2023-04-12T08:10:59.629Z,8.82
2023-04-12T08:13:28.574Z,8.82
2023-04-12T08:15:56.282Z,8.75
2023-04-12T08:18:23.925Z,8.89
2023-04-12T08:20:52.003Z,9.07
2023-04-12T08:23:19.704Z,9.35
2023-04-12T08:25:47.821Z,9.49
2023-04-12T08:28:15.672Z,9.67
2023-04-12T08:30:45.235Z,9.76
2023-04-12T08:33:12.810Z,9.95
2023-04-12T08:35:41.136Z,10.12
2023-04-12T08:38:09.023Z,10.33
2023-04-12T08:40:37.130Z,10.50
2023-04-12T08:43:11.988Z,10.54
2023-04-12T08:45:39.984Z,10.77
2023-04-12T08:48:09.111Z,10.88
2023-04-12T08:50:36.915Z,11.03
2023-04-12T08:53:04.559Z,11.18
2023-04-12T08:55:32.416Z,11.32
2023-04-12T08:58:00.655Z,11.39
2023-04-12T09:00:28.666Z,11.36
2023-04-12T09:02:56.484Z,11.60
2023-04-12T09:05:30.130Z,11.69
2023-04-12T09:07:57.948Z,11.76
2023-04-12T09:10:33.603Z,11.82
2023-04-12T09:13:01.646Z,12.00
2023-04-12T09:15:29.362Z,12.22
2023-04-12T09:18:08.346Z,12.41
2023-04-12T09:20:38.870Z,12.58
2023-04-12T09:23:18.190Z,12.73
2023-04-12T09:25:48.257Z,12.77
2023-04-12T09:28:24.151Z,12.77
2023-04-12T09:30:53.059Z,12.82
2023-04-12T09:33:22.210Z,13.03
2023-04-12T09:35:51.744Z,13.15
2023-04-12T09:38:19.515Z,13.19
2023-04-12T09:40:47.523Z,13.27
2023-04-12T09:43:15.801Z,13.36
2023-04-12T09:45:43.426Z,13.36
2023-04-12T09:48:21.998Z,13.60
2023-04-12T09:51:00.179Z,13.79
2023-04-12T09:53:28.158Z,13.97
2023-04-12T09:55:56.998Z,14.24
2023-04-12T09:58:26.459Z,14.53
2023-04-12T10:00:57.637Z,14.68
2023-04-12T10:03:26.015Z,14.88
2023-04-12T10:05:55.658Z,14.62
2023-04-12T10:08:24.095Z,14.86
2023-04-12T10:10:52.886Z,14.85
2023-04-12T10:13:20.887Z,14.77
2023-04-12T10:15:51.952Z,14.83
2023-04-12T10:18:19.881Z,14.99
2023-04-12T10:20:48.160Z,15.17
2023-04-12T10:23:19.736Z,15.18
2023-04-12T10:25:49.855Z,15.08
2023-04-12T10:28:19.490Z,15.17
2023-04-12T10:30:48.222Z,15.13
2023-04-12T10:33:17.854Z,15.23
2023-04-12T10:35:57.379Z,15.33
2023-04-12T10:38:32.451Z,15.30
2023-04-12T10:41:19.830Z,15.34
2023-04-12T10:43:48.100Z,14.95
2023-04-12T10:46:49.319Z,14.88
2023-04-12T10:49:18.105Z,15.06
2023-04-12T10:52:22.815Z,15.16
2023-04-12T10:54:52.058Z,15.25
2023-04-12T10:57:44.445Z,15.39
2023-04-12T11:00:13.474Z,15.28
2023-04-12T11:03:12.685Z,15.30
2023-04-12T11:06:09.197Z,15.39
2023-04-12T11:09:00.989Z,15.38
2023-04-12T11:11:35.826Z,15.21
2023-04-12T11:14:03.487Z,15.29
2023-04-12T11:16:31.217Z,15.44
2023-04-12T11:18:59.212Z,15.51
2023-04-12T11:21:27.417Z,15.65
2023-04-12T11:23:56.341Z,15.73
2023-04-12T11:26:25.535Z,15.83
2023-04-12T11:28:55.822Z,15.68
2023-04-12T11:31:24.378Z,15.58
2023-04-12T11:33:52.081Z,15.58
2023-04-12T11:36:19.756Z,15.47
2023-04-12T11:38:50.188Z,15.58
2023-04-12T11:41:18.826Z,15.75
2023-04-12T11:43:47.239Z,16.02
2023-04-12T11:46:18.115Z,16.18
2023-04-12T11:48:46.815Z,16.00
2023-04-12T11:51:21.164Z,15.50
2023-04-12T11:53:54.101Z,15.32
2023-04-12T11:56:21.988Z,15.43
2023-04-12T11:58:49.776Z,15.00
2023-04-12T12:01:20.391Z,14.58
2023-04-12T12:03:48.740Z,14.71
2023-04-12T12:06:17.524Z,14.07
2023-04-12T12:08:45.310Z,14.21
2023-04-12T12:11:13.258Z,14.35
2023-04-12T12:13:48.562Z,14.11
2023-04-12T12:16:17.340Z,13.88
2023-04-12T12:18:51.925Z,14.18
2023-04-12T12:21:20.933Z,14.17
2023-04-12T12:23:49.641Z,14.54
2023-04-12T12:26:22.366Z,14.00
2023-04-12T12:28:51.802Z,14.17
2023-04-12T12:31:21.236Z,14.33
2023-04-12T12:33:52.512Z,14.31
2023-04-12T12:36:20.995Z,14.42
2023-04-12T12:38:51.172Z,14.58
2023-04-12T12:41:19.757Z,14.47
2023-04-12T12:43:47.627Z,14.52
2023-04-12T12:46:15.908Z,14.55
2023-04-12T12:48:43.836Z,14.77
2023-04-12T12:51:14.154Z,14.63
2023-04-12T12:53:42.414Z,14.42
2023-04-12T12:56:11.065Z,14.49
2023-04-12T12:58:41.020Z,14.22
2023-04-12T13:01:09.026Z,14.28
2023-04-12T13:03:37.139Z,14.50
2023-04-12T13:06:05.349Z,14.15
2023-04-12T13:08:35.571Z,13.97
2023-04-12T13:11:03.169Z,14.57
2023-04-12T13:13:30.853Z,14.67
2023-04-12T13:15:58.424Z,14.52
2023-04-12T13:18:26.152Z,14.85
2023-04-12T13:20:53.703Z,14.50
2023-04-12T13:23:21.525Z,14.55
2023-04-12T13:25:50.575Z,14.31
2023-04-12T13:28:18.237Z,14.70
2023-04-12T13:30:45.868Z,14.43
2023-04-12T13:33:17.303Z,14.82
2023-04-12T13:35:46.823Z,14.48
2023-04-12T13:38:14.408Z,14.41
2023-04-12T13:40:41.977Z,14.52
2023-04-12T13:43:11.227Z,14.52
2023-04-12T13:45:38.997Z,14.52
2023-04-12T13:48:07.057Z,14.57
2023-04-12T13:50:34.719Z,14.58
2023-04-12T13:53:02.502Z,14.46
2023-04-12T13:55:30.121Z,14.71
2023-04-12T13:57:57.810Z,15.48
2023-04-12T14:00:27.297Z,15.30
2023-04-12T14:02:55.116Z,15.50
2023-04-12T14:05:22.797Z,15.43
2023-04-12T14:07:52.436Z,15.02
2023-04-12T14:10:20.005Z,14.68
2023-04-12T14:12:47.797Z,14.41
2023-04-12T14:15:15.353Z,14.53
2023-04-12T14:17:44.507Z,14.45
2023-04-12T14:20:12.632Z,14.41
2023-04-12T14:22:40.808Z,14.26
2023-04-12T14:25:09.442Z,14.11
2023-04-12T14:27:37.088Z,13.80
2023-04-12T14:30:07.213Z,13.98
2023-04-12T14:32:35.446Z,14.31
2023-04-12T14:35:05.277Z,14.28
2023-04-12T14:37:33.577Z,14.22
2023-04-12T14:40:01.566Z,14.56
2023-04-12T14:42:29.152Z,14.81
2023-04-12T14:44:56.824Z,14.76
2023-04-12T14:47:24.822Z,15.06
2023-04-12T14:49:52.523Z,15.27
2023-04-12T14:52:21.668Z,15.46
2023-04-12T14:54:49.501Z,15.62
2023-04-12T14:57:17.784Z,15.55
2023-04-12T14:59:45.769Z,15.31
2023-04-12T15:02:13.476Z,15.13
2023-04-12T15:04:41.339Z,14.83
2023-04-12T15:07:08.964Z,14.78
2023-04-12T15:09:38.620Z,14.86
2023-04-12T15:12:06.329Z,15.10
2023-04-12T15:14:34.209Z,14.96
2023-04-12T15:17:01.819Z,14.86
2023-04-12T15:19:29.492Z,14.70
2023-04-12T15:21:57.070Z,14.45
2023-04-12T15:24:25.525Z,14.77
2023-04-12T15:26:54.489Z,14.97
2023-04-12T15:29:22.412Z,14.71
2023-04-12T15:31:50.390Z,14.68
2023-04-12T15:34:18.521Z,14.82
2023-04-12T15:36:46.353Z,14.63
2023-04-12T15:39:15.025Z,14.49
2023-04-12T15:41:43.194Z,14.28
2023-04-12T15:44:13.399Z,14.36
2023-04-12T15:46:42.041Z,14.27
2023-04-12T15:49:10.354Z,14.12
2023-04-12T15:51:38.344Z,14.07
2023-04-12T15:54:06.881Z,14.04
2023-04-12T15:56:35.423Z,14.12
2023-04-12T15:59:03.191Z,14.17
2023-04-12T16:01:32.758Z,14.30
2023-04-12T16:04:00.509Z,14.18
2023-04-12T16:06:30.383Z,14.42
2023-04-12T16:08:58.072Z,14.38
2023-04-12T16:11:26.545Z,14.65
2023-04-12T16:13:55.072Z,14.64
2023-04-12T16:16:24.470Z,14.46
2023-04-12T16:18:55.768Z,14.59
2023-04-12T16:21:26.375Z,14.57
2023-04-12T16:23:54.045Z,14.40
2023-04-12T16:26:22.809Z,14.29
2023-04-12T16:28:51.668Z,14.16
2023-04-12T16:31:21.132Z,14.05
2023-04-12T16:33:49.229Z,14.12
2023-04-12T16:36:18.702Z,13.91
2023-04-12T16:38:46.699Z,13.73
2023-04-12T16:41:14.472Z,13.82
2023-04-12T16:43:44.087Z,13.45
2023-04-12T16:46:13.303Z,13.63
2023-04-12T16:48:41.222Z,13.60
2023-04-12T16:51:09.081Z,13.48
2023-04-12T16:53:38.181Z,13.40
2023-04-12T16:56:06.581Z,13.32
2023-04-12T16:58:34.211Z,13.14
2023-04-12T17:01:01.900Z,13.13
2023-04-12T17:03:30.286Z,13.17
2023-04-12T17:05:58.179Z,12.93
2023-04-12T17:08:25.857Z,12.78
2023-04-12T17:10:55.245Z,12.81
2023-04-12T17:13:22.826Z,12.78
2023-04-12T17:15:50.495Z,12.57
2023-04-12T17:18:18.164Z,12.33
2023-04-12T17:20:46.477Z,12.09
2023-04-12T17:23:14.419Z,12.14
2023-04-12T17:25:42.355Z,11.92
2023-04-12T17:28:11.413Z,11.65
2023-04-12T17:30:39.245Z,11.67
2023-04-12T17:33:07.789Z,11.56
2023-04-12T17:35:36.679Z,11.54
2023-04-12T17:38:04.923Z,11.56
2023-04-12T17:40:32.504Z,11.64
2023-04-12T17:43:00.106Z,11.74
2023-04-12T17:45:29.359Z,12.04
2023-04-12T17:47:57.001Z,11.84
2023-04-12T17:50:24.859Z,11.86
2023-04-12T17:52:52.590Z,11.74
2023-04-12T17:55:23.436Z,11.99
2023-04-12T17:57:51.177Z,11.71
2023-04-12T18:00:19.782Z,11.80
2023-04-12T18:02:50.059Z,11.58
2023-04-12T18:05:17.839Z,11.62
2023-04-12T18:07:45.619Z,11.38
2023-04-12T18:10:18.261Z,11.20
2023-04-12T18:12:47.736Z,11.35
2023-04-12T18:15:15.755Z,11.32
2023-04-12T18:17:43.612Z,11.29
2023-04-12T18:20:13.833Z,11.19
2023-04-12T18:22:42.232Z,11.14
2023-04-12T18:25:11.627Z,11.05
2023-04-12T18:27:39.484Z,10.84
2023-04-12T18:30:08.472Z,10.61
2023-04-12T18:32:36.203Z,10.50
2023-04-12T18:35:04.610Z,10.39
2023-04-12T18:37:33.524Z,10.28
2023-04-12T18:40:01.412Z,10.43
2023-04-12T18:42:29.112Z,10.53
2023-04-12T18:44:58.144Z,10.40
2023-04-12T18:47:26.927Z,10.25
2023-04-12T18:49:54.519Z,10.38
2023-04-12T18:52:22.317Z,10.36
2023-04-12T18:54:51.339Z,10.34
2023-04-12T18:57:19.386Z,10.37
2023-04-12T18:59:48.842Z,10.39
2023-04-12T19:02:18.183Z,10.45
2023-04-12T19:04:46.074Z,10.38
2023-04-12T19:07:13.628Z,10.58
2023-04-12T19:09:41.192Z,10.44
2023-04-12T19:12:10.335Z,10.51
2023-04-12T19:14:37.924Z,10.71
2023-04-12T19:17:05.572Z,10.88
2023-04-12T19:19:33.165Z,10.90
2023-04-12T19:22:00.806Z,10.79
2023-04-12T19:24:28.416Z,10.49
2023-04-12T19:26:56.311Z,10.24
2023-04-12T19:29:26.035Z,10.19
2023-04-12T19:31:54.188Z,10.15
2023-04-12T19:34:21.773Z,10.04
2023-04-12T19:36:49.785Z,10.04
2023-04-12T19:39:18.496Z,9.93
2023-04-12T19:41:48.505Z,9.91
2023-04-12T19:44:16.087Z,10.12
2023-04-12T19:46:45.280Z,9.93
2023-04-12T19:49:13.330Z,9.85
2023-04-12T19:51:40.984Z,9.98
2023-04-12T19:54:09.911Z,9.81
2023-04-12T19:56:37.626Z,9.98
2023-04-12T19:59:06.472Z,9.98
2023-04-12T20:01:35.239Z,9.97
2023-04-12T20:04:05.629Z,9.61
2023-04-12T20:06:33.259Z,9.53
2023-04-12T20:09:01.036Z,9.65
2023-04-12T20:11:28.854Z,9.30
2023-04-12T20:13:56.415Z,9.34
2023-04-12T20:16:24.149Z,9.17
2023-04-12T20:18:55.755Z,9.16
2023-04-12T20:21:24.846Z,9.01
2023-04-12T20:23:52.753Z,8.95
2023-04-12T20:26:21.148Z,9.02
2023-04-12T20:28:48.811Z,9.07
2023-04-12T20:31:16.514Z,9.06
2023-04-12T20:33:44.339Z,9.14
2023-04-12T20:36:13.164Z,9.05
2023-04-12T20:38:42.738Z,9.10
2023-04-12T20:41:10.919Z,9.05
2023-04-12T20:43:44.913Z,9.32
2023-04-12T20:46:15.572Z,9.20
2023-04-12T20:48:43.515Z,9.11
2023-04-12T20:51:13.575Z,9.08
2023-04-12T20:53:43.622Z,9.10
2023-04-12T20:56:11.210Z,9.04
2023-04-12T20:58:39.037Z,9.15
2023-04-12T21:01:07.492Z,9.28
2023-04-12T21:03:37.020Z,9.44
2023-04-12T21:06:06.740Z,9.32
2023-04-12T21:08:34.676Z,9.25
2023-04-12T21:11:03.835Z,9.31
2023-04-12T21:13:31.846Z,9.48
2023-04-12T21:16:01.145Z,9.29
2023-04-12T21:18:29.086Z,9.33
2023-04-12T21:20:59.741Z,9.47
2023-04-12T21:23:29.184Z,9.52
2023-04-12T21:25:57.830Z,9.53
2023-04-12T21:28:29.531Z,9.34
2023-04-12T21:30:58.198Z,9.41
2023-04-12T21:33:26.253Z,9.44
2023-04-12T21:35:55.031Z,9.47
2023-04-12T21:38:23.041Z,9.48
2023-04-12T21:40:51.037Z,9.45
2023-04-12T21:43:18.909Z,9.51
2023-04-12T21:45:47.877Z,9.53
2023-04-12T21:48:15.778Z,9.54
2023-04-12T21:50:43.366Z,9.57
2023-04-12T21:53:11.090Z,9.60
2023-04-12T21:55:38.848Z,9.57
2023-04-12T21:58:07.290Z,9.51
2023-04-12T22:00:34.927Z,9.36
2023-04-12T22:03:04.353Z,9.48
2023-04-12T22:05:32.151Z,9.27
2023-04-12T22:07:59.854Z,9.38
2023-04-12T22:10:27.583Z,9.39
2023-04-12T22:12:55.147Z,9.46
2023-04-12T22:15:22.965Z,9.50
2023-04-12T22:17:50.564Z,9.50
2023-04-12T22:20:19.808Z,9.44
2023-04-12T22:22:47.559Z,9.49
2023-04-12T22:25:15.828Z,9.44
2023-04-12T22:27:46.212Z,9.40
2023-04-12T22:30:14.477Z,9.50
2023-04-12T22:32:42.143Z,9.51
2023-04-12T22:35:10.702Z,9.47
2023-04-12T22:37:41.120Z,9.49
2023-04-12T22:40:12.237Z,9.34
2023-04-12T22:42:45.964Z,9.40
2023-04-12T22:45:14.418Z,9.36
2023-04-12T22:47:42.968Z,9.19
2023-04-12T22:50:12.795Z,8.92
2023-04-12T22:52:42.402Z,9.09
2023-04-12T22:55:12.614Z,9.14
2023-04-12T22:57:40.198Z,8.92
2023-04-12T23:00:15.743Z,8.62
2023-04-12T23:02:44.849Z,8.25
2023-04-12T23:05:12.832Z,7.89
2023-04-12T23:07:43.333Z,7.85
2023-04-12T23:10:12.260Z,7.56
2023-04-12T23:12:40.047Z,7.49
2023-04-12T23:15:08.993Z,7.60
2023-04-12T23:17:37.247Z,7.44
2023-04-12T23:20:09.831Z,7.51
2023-04-12T23:22:56.515Z,7.59
2023-04-12T23:25:38.595Z,7.56
2023-04-12T23:28:12.496Z,7.42
2023-04-12T23:30:42.467Z,7.72
2023-04-12T23:33:11.954Z,7.41
2023-04-12T23:35:40.308Z,7.22
2023-04-12T23:38:09.573Z,7.26
2023-04-12T23:40:38.614Z,7.32
2023-04-12T23:43:08.515Z,7.52
2023-04-12T23:45:36.744Z,7.76
2023-04-12T23:48:05.478Z,7.91
2023-04-12T23:50:33.377Z,7.87
2023-04-12T23:53:01.059Z,7.82
2023-04-12T23:55:28.956Z,7.97
2023-04-12T23:57:57.899Z,8.05
